Time;durP1;ratioP1;P1;durP2;ratioP2;P2;SDS_P1;SDS_P2;PMS_P1;PMS_P2;Temp;Humidity;BMP_temperature;BMP_pressure;BME280_temperature;BME280_humidity;BME280_pressure;Samples;Min_cycle;Max_cycle;Signal;HPM_P1;HPM_P2
2022/03/03 00:00:30;;;;;;;23.97;13.53;;;;;;;-5.48;100.00;97360.75;4966118;28;20914;-57
2022/03/03 00:02:58;;;;;;;19.73;13.20;;;;;;;-5.37;100.00;97345.53;4921154;28;20214;-56
2022/03/03 00:05:26;;;;;;;18.13;13.13;;;;;;;-5.56;100.00;97345.66;4968684;28;20535;-49
2022/03/03 00:07:55;;;;;;;16.17;12.30;;;;;;;-5.27;100.00;97348.47;4947684;28;20218;-51
2022/03/03 00:10:23;;;;;;;15.13;11.70;;;;;;;-5.45;100.00;97343.34;4949358;28;20226;-49
2022/03/03 00:12:51;;;;;;;15.60;11.83;;;;;;;-5.26;100.00;97344.97;4963810;28;20205;-55
2022/03/03 00:15:19;;;;;;;12.73;11.07;;;;;;;-5.37;100.00;97341.19;4965380;28;20257;-47
2022/03/03 00:17:48;;;;;;;14.77;11.80;;;;;;;-5.54;100.00;97344.63;4923358;28;20214;-53
2022/03/03 00:20:16;;;;;;;20.60;13.20;;;;;;;-5.50;100.00;97341.88;4959255;28;20202;-50
2022/03/03 00:22:44;;;;;;;17.00;12.77;;;;;;;-5.43;100.00;97343.25;4958826;28;21013;-53
2022/03/03 00:25:14;;;;;;;14.53;10.93;;;;;;;-5.34;100.00;97344.50;4939437;28;21028;-53
2022/03/03 00:27:42;;;;;;;19.50;13.13;;;;;;;-5.48;100.00;97348.66;4967495;28;20773;-55
2022/03/03 00:30:11;;;;;;;17.90;12.20;;;;;;;-5.71;100.00;97350.66;4955207;28;20516;-51
2022/03/03 00:32:40;;;;;;;14.53;11.43;;;;;;;-5.84;100.00;97345.31;4930238;28;20472;-48
2022/03/03 00:35:09;;;;;;;17.67;12.47;;;;;;;-5.82;100.00;97342.63;4964143;28;20476;-52
2022/03/03 00:37:38;;;;;;;14.83;11.23;;;;;;;-5.99;100.00;97340.91;4966165;28;20465;-53
2022/03/03 00:40:07;;;;;;;14.97;12.27;;;;;;;-6.02;100.00;97343.69;4952640;28;20205;-52
2022/03/03 00:42:37;;;;;;;18.47;11.30;;;;;;;-5.80;100.00;97348.56;4952234;28;20461;-53
2022/03/03 00:45:06;;;;;;;13.87;10.30;;;;;;;-5.72;100.00;97343.84;4964896;28;20846;-49
2022/03/03 00:47:34;;;;;;;13.60;10.93;;;;;;;-5.65;100.00;97346.13;4963493;28;20464;-50
2022/03/03 00:50:02;;;;;;;14.30;11.17;;;;;;;-5.78;100.00;97343.34;4925727;28;20489;-50
2022/03/03 00:52:30;;;;;;;14.67;11.10;;;;;;;-6.04;100.00;97346.34;4963336;28;20461;-53
2022/03/03 00:54:58;;;;;;;13.37;10.90;;;;;;;-6.04;100.00;97353.25;4948402;28;20226;-57
2022/03/03 00:57:26;;;;;;;14.90;11.63;;;;;;;-5.97;100.00;97354.56;4949361;28;20493;-50
2022/03/03 00:59:56;;;;;;;12.33;9.90;;;;;;;-6.18;100.00;97349.59;4963201;28;20457;-53
2022/03/03 01:02:23;;;;;;;13.73;10.60;;;;;;;-6.28;100.00;97343.22;4965655;28;20465;-51
2022/03/03 01:04:52;;;;;;;11.87;10.20;;;;;;;-6.31;100.00;97336.47;4925121;28;20495;-54
2022/03/03 01:07:20;;;;;;;13.17;10.73;;;;;;;-6.37;100.00;97348.81;4961328;28;20464;-56
2022/03/03 01:09:48;;;;;;;16.07;11.43;;;;;;;-6.33;100.00;97338.28;4952054;28;20516;-50
2022/03/03 01:12:16;;;;;;;12.40;9.60;;;;;;;-6.27;100.00;97338.00;4948833;28;20781;-50
2022/03/03 01:14:44;;;;;;;12.00;9.83;;;;;;;-6.17;100.00;97330.63;4961550;28;20978;-55
2022/03/03 01:17:14;;;;;;;11.53;10.20;;;;;;;-6.09;100.00;97332.81;4962144;28;20964;-54
2022/03/03 01:19:42;;;;;;;12.00;10.67;;;;;;;-6.03;100.00;97339.44;4925367;28;20625;-51
2022/03/03 01:22:10;;;;;;;12.87;11.33;;;;;;;-6.02;100.00;97336.78;4963432;28;20465;-52
2022/03/03 01:24:38;;;;;;;13.87;10.20;;;;;;;-6.00;100.00;97334.94;4948545;28;21404;-52
2022/03/03 01:27:06;;;;;;;14.50;10.50;;;;;;;-5.90;100.00;97337.03;4946630;28;20465;-52
2022/03/03 01:29:34;;;;;;;13.37;11.00;;;;;;;-5.92;100.00;97336.28;4964185;28;21408;-49
2022/03/03 01:32:02;;;;;;;14.73;11.57;;;;;;;-5.94;100.00;97335.53;4967543;28;20457;-51
2022/03/03 01:34:32;;;;;;;12.23;10.63;;;;;;;-5.99;100.00;97335.75;4919840;28;21052;-53
2022/03/03 01:37:00;;;;;;;14.07;10.60;;;;;;;-6.03;100.00;97339.44;4964316;28;20919;-56
2022/03/03 01:39:28;;;;;;;16.33;10.93;;;;;;;-5.86;100.00;97334.25;4955189;28;20866;-55
2022/03/03 01:41:57;;;;;;;13.83;11.27;;;;;;;-5.89;100.00;97336.94;4947130;28;20475;-55
2022/03/03 01:44:25;;;;;;;11.77;10.13;;;;;;;-6.06;100.00;97337.84;4964668;28;20208;-51
2022/03/03 01:46:54;;;;;;;14.87;12.27;;;;;;;-6.02;100.00;97333.34;4965756;28;20481;-52
2022/03/03 01:49:53;;;;;;;10.70;9.63;;;;;;;-6.05;100.00;97331.78;4915174;28;20477;-48
2022/03/03 01:52:22;;;;;;;12.47;10.33;;;;;;;-6.07;100.00;97333.56;4966677;28;20552;-49
2022/03/03 01:54:50;;;;;;;17.00;11.47;;;;;;;-6.13;100.00;97339.03;4954353;28;20364;-48
2022/03/03 01:57:20;;;;;;;16.53;12.27;;;;;;;-6.26;100.00;97338.81;4944978;28;20781;-52
2022/03/03 01:59:48;;;;;;;13.50;10.97;;;;;;;-6.16;100.00;97337.47;4966831;28;20488;-49
2022/03/03 02:02:17;;;;;;;11.33;10.17;;;;;;;-6.10;100.00;97331.16;4968751;28;20978;-52
2022/03/03 02:04:45;;;;;;;15.00;11.57;;;;;;;-6.23;100.00;97335.25;4922493;28;20515;-46
2022/03/03 02:07:15;;;;;;;12.80;10.40;;;;;;;-6.34;100.00;97320.31;4965354;28;20649;-53
2022/03/03 02:09:43;;;;;;;14.90;10.73;;;;;;;-6.27;100.00;97313.94;4961361;28;20496;-51
2022/03/03 02:12:11;;;;;;;11.70;10.50;;;;;;;-6.12;100.00;97308.03;4954635;28;20798;-53
2022/03/03 02:14:43;;;;;;;12.53;10.73;;;;;;;-6.06;100.00;97300.88;4951138;28;20206;-50
2022/03/03 02:17:12;;;;;;;11.30;10.20;;;;;;;-6.13;100.00;97306.34;4965229;28;20741;-51
2022/03/03 02:19:41;;;;;;;14.30;11.03;;;;;;;-6.21;100.00;97305.06;4956056;28;20564;-54
2022/03/03 02:22:13;;;;;;;14.03;11.23;;;;;;;-6.19;100.00;97310.97;4950170;28;20609;-50
2022/03/03 02:24:43;;;;;;;12.47;11.03;;;;;;;-6.21;100.00;97312.81;4966876;28;20547;-48
2022/03/03 02:27:11;;;;;;;13.33;11.47;;;;;;;-6.22;100.00;97301.66;4956243;28;20679;-50
2022/03/03 02:29:40;;;;;;;11.63;10.37;;;;;;;-6.27;100.00;97308.78;4948726;28;20552;-48
2022/03/03 02:32:09;;;;;;;10.53;9.47;;;;;;;-6.29;100.00;97303.69;4963746;28;20465;-49
2022/03/03 02:34:37;;;;;;;12.93;10.63;;;;;;;-6.34;100.00;97303.09;4965881;28;20548;-48
2022/03/03 02:37:06;;;;;;;17.00;11.60;;;;;;;-6.34;100.00;97305.69;4917239;28;20665;-51
2022/03/03 02:39:35;;;;;;;11.97;10.07;;;;;;;-6.45;100.00;97301.03;4965305;28;20501;-50
2022/03/03 02:42:04;;;;;;;17.23;10.67;;;;;;;-6.39;100.00;97305.06;4944947;28;20937;-53
2022/03/03 02:44:32;;;;;;;12.83;10.13;;;;;;;-6.34;100.00;97316.00;4948483;28;20584;-51
2022/03/03 02:47:00;;;;;;;14.87;10.10;;;;;;;-6.33;100.00;97303.91;4964839;28;20822;-51
2022/03/03 02:49:29;;;;;;;13.83;11.00;;;;;;;-6.68;100.00;97300.41;4968032;28;20539;-51
2022/03/03 02:51:57;;;;;;;13.83;10.47;;;;;;;-6.77;100.00;97300.03;4922478;28;20579;-50
2022/03/03 02:54:26;;;;;;;15.30;10.63;;;;;;;-6.95;100.00;97296.59;4968624;28;20489;-50
2022/03/03 02:59:41;;;;;;;15.10;12.00;;;;;;;-7.06;100.00;97277.28;4965178;28;20569;-51
2022/03/03 03:02:10;;;;;;;14.40;11.27;;;;;;;-7.07;100.00;97295.41;4952351;28;20214;-52
2022/03/03 03:04:38;;;;;;;11.87;10.57;;;;;;;-7.08;100.00;97296.31;4966134;28;20496;-47
2022/03/03 03:07:06;;;;;;;15.10;11.70;;;;;;;-7.13;100.00;97291.38;4920162;28;21101;-51
2022/03/03 03:09:34;;;;;;;14.93;9.70;;;;;;;-7.18;100.00;97294.16;4967898;28;21032;-53
2022/03/03 03:12:05;;;;;;;14.47;11.17;;;;;;;-6.87;100.00;97294.47;4945378;28;23383;-51
2022/03/03 03:14:33;;;;;;;12.20;8.93;;;;;;;-6.79;100.00;97294.94;4966741;28;20895;-48
2022/03/03 03:17:02;;;;;;;17.33;11.90;;;;;;;-6.57;100.00;97294.75;4939341;28;20606;-44
2022/03/03 03:19:30;;;;;;;12.03;10.20;;;;;;;-6.68;100.00;97284.94;4965168;28;21264;-49
2022/03/03 03:21:59;;;;;;;11.90;10.60;;;;;;;-6.70;100.00;97284.19;4918683;28;21332;-52
2022/03/03 03:24:27;;;;;;;12.57;11.27;;;;;;;-6.65;100.00;97289.13;4969735;28;20527;-49
2022/03/03 03:26:55;;;;;;;12.00;10.70;;;;;;;-6.64;100.00;97287.38;4943938;28;21073;-50
2022/03/03 03:29:25;;;;;;;12.20;9.70;;;;;;;-6.76;100.00;97284.47;4967982;28;20953;-49
2022/03/03 03:31:53;;;;;;;15.70;10.17;;;;;;;-6.84;100.00;97282.25;4941310;28;21080;-48
2022/03/03 03:34:21;;;;;;;13.27;11.20;;;;;;;-6.90;100.00;97276.59;4970322;28;20461;-53
2022/03/03 03:36:53;;;;;;;13.57;10.87;;;;;;;-6.90;100.00;97267.09;4918294;28;21010;-51
2022/03/03 03:39:21;;;;;;;14.30;9.60;;;;;;;-6.99;100.00;97268.41;4967087;28;20882;-52
2022/03/03 03:41:49;;;;;;;10.00;8.93;;;;;;;-6.99;100.00;97270.97;4962041;28;20486;-48
2022/03/03 03:44:17;;;;;;;15.00;10.10;;;;;;;-7.17;100.00;97269.25;4951756;28;20564;-48
2022/03/03 03:46:47;;;;;;;13.10;9.83;;;;;;;-7.03;100.00;97255.72;4954106;28;20489;-49
2022/03/03 03:49:16;;;;;;;11.07;9.97;;;;;;;-6.92;100.00;97255.22;4960693;28;20470;-51
2022/03/03 03:51:44;;;;;;;12.10;10.17;;;;;;;-6.86;100.00;97253.16;4964215;28;20222;-48
2022/03/03 03:54:12;;;;;;;11.43;10.33;;;;;;;-6.82;100.00;97253.84;4919229;28;20493;-51
2022/03/03 03:56:40;;;;;;;13.23;10.10;;;;;;;-6.84;100.00;97259.06;4964649;28;20581;-52
2022/03/03 03:59:08;;;;;;;14.27;10.53;;;;;;;-7.01;100.00;97256.47;4943574;28;21179;-49
2022/03/03 04:01:36;;;;;;;12.77;9.63;;;;;;;-6.95;100.00;97255.38;4966854;28;20548;-45
2022/03/03 04:04:06;;;;;;;19.40;9.73;;;;;;;-6.91;100.00;97246.56;4942839;28;20741;-51
2022/03/03 04:06:36;;;;;;;12.47;9.87;;;;;;;-6.94;100.00;97246.72;4965065;28;20481;-53
2022/03/03 04:09:04;;;;;;;15.30;10.43;;;;;;;-6.89;100.00;97242.19;4919154;28;20566;-49
2022/03/03 04:11:32;;;;;;;11.27;10.07;;;;;;;-6.94;100.00;97239.00;4966668;28;20308;-55
2022/03/03 04:14:01;;;;;;;11.73;9.23;;;;;;;-6.99;100.00;97236.63;4914506;28;20785;-52
2022/03/03 04:16:29;;;;;;;11.10;10.00;;;;;;;-7.13;100.00;97232.97;4967108;28;20563;-54
2022/03/03 04:18:57;;;;;;;12.43;10.80;;;;;;;-7.23;100.00;97230.91;4944703;28;20650;-54
2022/03/03 04:21:27;;;;;;;13.53;11.23;;;;;;;-7.30;100.00;97233.78;4945717;28;20559;-50
2022/03/03 04:23:55;;;;;;;12.27;10.53;;;;;;;-7.20;100.00;97228.19;4914950;28;20515;-50
2022/03/03 04:26:23;;;;;;;13.70;9.03;;;;;;;-7.08;100.00;97230.16;4962925;28;21024;-49
2022/03/03 04:28:51;;;;;;;12.20;10.50;;;;;;;-7.23;100.00;97205.16;4944177;28;21585;-51
2022/03/03 04:31:20;;;;;;;12.63;9.47;;;;;;;-7.33;100.00;97213.31;4962615;28;20583;-50
2022/03/03 04:33:48;;;;;;;10.70;9.60;;;;;;;-7.55;100.00;97218.63;4948334;28;20501;-51
2022/03/03 04:36:20;;;;;;;11.27;9.90;;;;;;;-7.72;100.00;97202.22;4961027;28;20488;-48
2022/03/03 04:38:50;;;;;;;11.00;8.77;;;;;;;-7.76;100.00;97197.28;4961322;28;20564;-50
2022/03/03 04:41:19;;;;;;;11.27;9.97;;;;;;;-7.73;100.00;97200.53;4913434;28;20559;-50
2022/03/03 04:43:49;;;;;;;11.63;9.83;;;;;;;-7.51;100.00;97199.56;4965849;28;20470;-55
2022/03/03 04:46:17;;;;;;;11.70;10.57;;;;;;;-7.61;100.00;97203.44;4944255;28;20574;-49
2022/03/03 04:48:46;;;;;;;12.47;11.13;;;;;;;-7.70;100.00;97197.00;4969107;28;20551;-50
2022/03/03 04:51:14;;;;;;;11.63;9.10;;;;;;;-7.87;100.00;97182.34;4919409;28;20647;-47
2022/03/03 04:53:42;;;;;;;13.47;10.60;;;;;;;-8.03;100.00;97177.03;4961393;28;20982;-51
2022/03/03 04:56:12;;;;;;;13.50;9.77;;;;;;;-8.06;100.00;97164.31;4918080;28;20614;-52
2022/03/03 04:58:40;;;;;;;13.07;10.80;;;;;;;-8.09;100.00;97156.75;4933356;28;20608;-53
2022/03/03 05:01:08;;;;;;;12.90;10.40;;;;;;;-8.15;100.00;97160.41;4942192;28;20586;-48
2022/03/03 05:03:36;;;;;;;12.17;10.93;;;;;;;-8.09;100.00;97162.72;4964968;28;21230;-50
2022/03/03 05:06:05;;;;;;;12.77;10.47;;;;;;;-8.07;100.00;97162.66;4927131;28;20568;-47
2022/03/03 05:08:33;;;;;;;12.40;10.27;;;;;;;-8.02;100.00;97165.84;4965078;28;20484;-49
2022/03/03 05:11:01;;;;;;;12.17;10.73;;;;;;;-8.25;100.00;97160.00;4926081;28;21028;-49
2022/03/03 05:13:31;;;;;;;13.50;10.37;;;;;;;-8.31;100.00;97157.69;4930932;28;20882;-49
2022/03/03 05:15:59;;;;;;;14.37;10.53;;;;;;;-8.17;100.00;97162.22;4950845;28;21062;-54
2022/03/03 05:18:28;;;;;;;11.37;9.53;;;;;;;-8.27;100.00;97154.09;4963592;28;20488;-50
2022/03/03 05:20:56;;;;;;;14.47;10.20;;;;;;;-8.42;100.00;97158.16;4943867;28;20556;-49
2022/03/03 05:23:24;;;;;;;12.33;10.33;;;;;;;-8.37;100.00;97153.66;4966746;28;20492;-49
2022/03/03 05:25:53;;;;;;;13.17;10.67;;;;;;;-8.42;100.00;97140.16;4946642;28;20571;-50
2022/03/03 05:28:21;;;;;;;11.60;10.40;;;;;;;-8.31;100.00;97160.25;4923947;28;20473;-56
2022/03/03 05:30:51;;;;;;;13.20;10.17;;;;;;;-8.33;100.00;97155.19;4970621;28;20545;-48
2022/03/03 05:33:20;;;;;;;15.47;11.57;;;;;;;-8.27;100.00;97169.50;4952771;28;20847;-51
2022/03/03 05:35:49;;;;;;;16.27;10.53;;;;;;;-8.30;100.00;97185.91;4965574;28;20580;-53
2022/03/03 05:38:17;;;;;;;13.47;11.60;;;;;;;-8.15;100.00;97199.81;4943960;28;20496;-51
2022/03/03 05:40:45;;;;;;;15.57;11.53;;;;;;;-8.03;100.00;97193.28;4966919;28;20971;-52
2022/03/03 05:43:14;;;;;;;15.43;11.20;;;;;;;-8.23;100.00;97195.94;4900456;28;20468;-50
2022/03/03 05:45:42;;;;;;;16.67;12.43;;;;;;;-8.24;100.00;97196.81;4964985;28;20584;-51
2022/03/03 05:48:12;;;;;;;18.13;12.87;;;;;;;-8.06;100.00;97198.56;4952869;28;20473;-51
2022/03/03 05:50:40;;;;;;;15.13;11.53;;;;;;;-7.97;100.00;97196.50;4963851;28;20453;-49
2022/03/03 05:53:08;;;;;;;15.70;12.37;;;;;;;-8.01;100.00;97190.66;4950554;28;21080;-48
2022/03/03 05:55:40;;;;;;;13.80;11.53;;;;;;;-7.87;100.00;97201.16;4967375;28;20970;-49
2022/03/03 05:58:11;;;;;;;12.53;10.37;;;;;;;-7.87;100.00;97201.16;4923658;28;20470;-53
2022/03/03 06:00:39;;;;;;;13.50;10.37;;;;;;;-7.75;100.00;97198.97;4948060;28;20547;-52
2022/03/03 06:03:09;;;;;;;11.67;10.47;;;;;;;-7.80;100.00;97188.88;4952505;28;20916;-54
2022/03/03 06:05:41;;;;;;;14.00;10.93;;;;;;;-7.86;100.00;97184.81;4968878;28;20807;-49
2022/03/03 06:08:14;;;;;;;13.70;10.17;;;;;;;-7.89;100.00;97179.00;4950905;28;20500;-51
2022/03/03 06:10:46;;;;;;;11.33;8.97;;;;;;;-7.85;100.00;97175.38;4968538;28;20811;-53
2022/03/03 06:13:21;;;;;;;13.57;10.70;;;;;;;-7.63;100.00;97192.41;4919982;28;20598;-48
2022/03/03 06:15:50;;;;;;;12.00;10.87;;;;;;;-7.40;100.00;97193.91;4944926;28;20484;-50
2022/03/03 06:18:20;;;;;;;16.47;10.57;;;;;;;-7.22;100.00;97199.09;4948705;28;20581;-52
2022/03/03 06:20:51;;;;;;;11.90;10.73;;;;;;;-7.06;100.00;97202.59;4966833;28;20562;-49
2022/03/03 06:23:20;;;;;;;11.67;10.07;;;;;;;-6.98;100.00;97208.22;4956440;28;20546;-49
2022/03/03 06:25:49;;;;;;;12.90;10.23;;;;;;;-6.88;100.00;97206.03;4964635;28;20527;-46
2022/03/03 06:28:17;;;;;;;11.37;10.07;;;;;;;-6.96;100.00;97209.91;4924056;28;20333;-53
2022/03/03 06:30:45;;;;;;;12.73;10.60;;;;;;;-7.06;100.00;97206.94;4947845;28;20495;-50
2022/03/03 06:33:18;;;;;;;15.90;11.30;;;;;;;-7.22;100.00;97210.22;4949328;28;20495;-48
2022/03/03 06:35:46;;;;;;;14.93;10.90;;;;;;;-7.35;100.00;97197.13;4954367;28;21094;-50
2022/03/03 06:38:16;;;;;;;13.23;10.83;;;;;;;-7.35;100.00;97201.41;4968421;28;21053;-50
2022/03/03 06:40:45;;;;;;;20.77;14.53;;;;;;;-7.43;100.00;97200.03;4941212;28;20893;-50
2022/03/03 06:43:13;;;;;;;13.70;12.23;;;;;;;-7.45;100.00;97198.44;4921589;28;20758;-51
2022/03/03 06:45:42;;;;;;;13.93;11.47;;;;;;;-7.35;100.00;97204.84;4964007;28;20502;-52
2022/03/03 06:48:10;;;;;;;12.83;11.63;;;;;;;-7.01;100.00;97205.81;4937268;28;20468;-55
2022/03/03 06:50:40;;;;;;;11.83;10.50;;;;;;;-6.77;100.00;97213.22;4953953;28;20554;-50
2022/03/03 06:53:09;;;;;;;12.30;11.10;;;;;;;-6.78;100.00;97209.00;4965975;28;20528;-53
2022/03/03 06:55:39;;;;;;;14.13;11.93;;;;;;;-6.81;100.00;97208.31;4949590;28;20488;-48
2022/03/03 06:58:07;;;;;;;16.17;12.00;;;;;;;-6.74;100.00;97197.63;4965535;28;20484;-52
2022/03/03 07:00:35;;;;;;;13.40;10.60;;;;;;;-6.58;100.00;97192.53;4923139;28;20484;-51
2022/03/03 07:03:05;;;;;;;14.43;11.67;;;;;;;-6.52;100.00;97188.81;4949602;28;20690;-50
2022/03/03 07:05:34;;;;;;;16.00;11.10;;;;;;;-6.40;100.00;97187.38;4950645;28;20576;-51
2022/03/03 07:08:02;;;;;;;18.27;12.33;;;;;;;-6.32;100.00;97184.38;4967348;28;20560;-52
2022/03/03 07:10:30;;;;;;;14.47;11.33;;;;;;;-6.19;100.00;97182.84;4950091;28;20493;-53
2022/03/03 07:13:00;;;;;;;17.30;12.87;;;;;;;-6.18;100.00;97179.38;4961676;28;20511;-51
2022/03/03 07:15:28;;;;;;;20.20;13.77;;;;;;;-5.98;100.00;97177.44;4925831;28;20480;-50
2022/03/03 07:18:04;;;;;;;16.17;12.77;;;;;;;-5.79;100.00;97186.81;4949328;28;20862;-54
2022/03/03 07:20:38;;;;;;;15.30;12.40;;;;;;;-5.76;100.00;97192.63;4952013;28;20483;-54
2022/03/03 07:23:14;;;;;;;16.60;11.73;;;;;;;-5.56;100.00;97196.72;4962264;28;20460;-49
2022/03/03 07:25:51;;;;;;;15.50;12.27;;;;;;;-5.47;100.00;97194.56;4950410;28;20480;-50
2022/03/03 07:28:21;;;;;;;16.57;12.90;;;;;;;-5.20;100.00;97199.97;4965719;28;20457;-52
2022/03/03 07:30:51;;;;;;;15.50;12.73;;;;;;;-5.28;100.00;97187.47;4931654;28;20547;-54
2022/03/03 07:33:25;;;;;;;14.83;12.57;;;;;;;-5.19;100.00;97198.19;4950553;28;20603;-50
2022/03/03 07:35:57;;;;;;;18.20;13.10;;;;;;;-5.04;100.00;97199.94;4945115;28;20630;-48
2022/03/03 07:38:28;;;;;;;16.70;12.43;;;;;;;-4.91;100.00;97213.00;4967800;28;20242;-50
2022/03/03 07:40:57;;;;;;;15.37;12.77;;;;;;;-4.87;100.00;97216.22;4942834;28;20622;-48
2022/03/03 07:43:26;;;;;;;15.00;12.57;;;;;;;-4.66;100.00;97206.41;4963577;28;20298;-52
2022/03/03 07:45:54;;;;;;;17.67;11.73;;;;;;;-4.49;100.00;97202.84;4917261;28;20574;-53
2022/03/03 07:48:24;;;;;;;14.63;12.57;;;;;;;-4.34;100.00;97190.78;4969090;28;20770;-56
2022/03/03 07:50:53;;;;;;;14.90;13.30;;;;;;;-4.43;100.00;97199.91;4946888;28;20468;-57
2022/03/03 07:53:21;;;;;;;14.20;12.50;;;;;;;-4.22;100.00;97194.41;4951817;28;20233;-52
2022/03/03 07:55:51;;;;;;;13.70;11.40;;;;;;;-4.12;100.00;97200.69;4960346;28;20567;-51
2022/03/03 07:58:21;;;;;;;14.30;12.60;;;;;;;-4.01;100.00;97206.97;4947481;28;20918;-50
2022/03/03 08:00:53;;;;;;;14.60;12.77;;;;;;;-3.90;100.00;97196.81;4964230;28;20485;-51
2022/03/03 08:03:23;;;;;;;15.23;12.53;;;;;;;-3.74;100.00;97193.28;4923007;28;20709;-52
2022/03/03 08:05:53;;;;;;;14.33;11.33;;;;;;;-3.78;100.00;97206.41;4948238;28;20512;-53
2022/03/03 08:08:23;;;;;;;13.43;11.90;;;;;;;-3.37;100.00;97204.78;4947980;28;20218;-52
2022/03/03 08:10:51;;;;;;;14.17;12.67;;;;;;;-3.12;100.00;97212.78;4961834;28;20436;-55
2022/03/03 08:13:19;;;;;;;15.03;13.43;;;;;;;-3.02;100.00;97205.25;4950639;28;20312;-53
2022/03/03 08:15:47;;;;;;;14.13;12.47;;;;;;;-2.96;100.00;97204.84;4962921;28;20593;-51
2022/03/03 08:18:17;;;;;;;17.60;13.20;;;;;;;-2.69;100.00;97197.03;4924134;28;20233;-50
2022/03/03 08:20:45;;;;;;;16.43;12.93;;;;;;;-3.05;100.00;97191.53;4947789;28;20214;-47
2022/03/03 08:23:14;;;;;;;15.13;13.27;;;;;;;-2.72;100.00;97206.75;4949460;28;20736;-48
2022/03/03 08:25:42;;;;;;;14.50;12.70;;;;;;;-2.36;100.00;97215.66;4964886;28;20268;-53
2022/03/03 08:28:11;;;;;;;15.77;13.37;;;;;;;-2.29;100.00;97210.91;4946732;28;20224;-49
2022/03/03 08:30:39;;;;;;;20.50;12.50;;;;;;;-2.22;100.00;97199.16;4963465;28;20364;-50
2022/03/03 08:33:09;;;;;;;15.30;12.43;;;;;;;-1.81;100.00;97197.28;4929986;28;21202;-51
2022/03/03 08:35:41;;;;;;;16.77;13.50;;;;;;;-1.91;100.00;97202.28;4958378;28;20226;-53
2022/03/03 08:38:18;;;;;;;17.90;13.17;;;;;;;-1.76;100.00;97188.22;4961414;28;20299;-48
2022/03/03 08:40:47;;;;;;;18.07;13.43;;;;;;;-1.55;100.00;97187.66;4947889;28;20702;-49
2022/03/03 08:43:20;;;;;;;16.70;12.70;;;;;;;-1.44;100.00;97192.13;4947292;28;20293;-51
2022/03/03 08:45:49;;;;;;;16.30;13.47;;;;;;;-0.98;100.00;97192.38;4963685;28;20374;-53
2022/03/03 08:48:20;;;;;;;14.10;12.60;;;;;;;-0.88;100.00;97188.97;4924428;28;20732;-48
2022/03/03 08:50:52;;;;;;;14.73;12.10;;;;;;;-0.82;100.00;97179.06;4956422;28;20749;-47
2022/03/03 08:53:20;;;;;;;15.97;12.40;;;;;;;-0.30;100.00;97177.78;4948249;28;20721;-49
2022/03/03 08:55:48;;;;;;;15.40;13.90;;;;;;;-0.18;100.00;97170.00;4945649;28;20229;-46
2022/03/03 08:58:16;;;;;;;17.90;12.83;;;;;;;-0.10;100.00;97169.41;4947987;28;20214;-48
2022/03/03 09:00:45;;;;;;;18.47;13.97;;;;;;;0.06;100.00;97161.25;4959351;28;20757;-49
2022/03/03 09:03:15;;;;;;;15.90;13.57;;;;;;;0.07;100.00;97160.28;4922631;28;20217;-51
2022/03/03 09:05:43;;;;;;;14.77;13.27;;;;;;;0.29;100.00;97156.84;4960031;28;20609;-48
2022/03/03 09:08:13;;;;;;;18.07;13.67;;;;;;;0.56;100.00;97159.06;4949929;28;20278;-50
2022/03/03 09:10:41;;;;;;;18.67;14.13;;;;;;;0.70;100.00;97157.97;4943498;28;20803;-47
2022/03/03 09:13:10;;;;;;;17.47;14.20;;;;;;;0.92;100.00;97145.81;4969115;28;20296;-50
2022/03/03 09:15:38;;;;;;;18.10;13.40;;;;;;;0.77;100.00;97147.06;4945611;28;20237;-47
2022/03/03 09:18:07;;;;;;;18.03;14.20;;;;;;;0.92;100.00;97139.75;4922476;28;20827;-53
2022/03/03 09:20:36;;;;;;;17.07;13.43;;;;;;;1.12;100.00;97138.97;4959181;28;20329;-50
2022/03/03 09:23:04;;;;;;;18.73;15.07;;;;;;;1.13;100.00;97130.19;4944780;28;20924;-47
2022/03/03 09:25:36;;;;;;;19.10;14.73;;;;;;;1.53;100.00;97125.22;4949645;28;20312;-50
2022/03/03 09:28:05;;;;;;;16.17;13.23;;;;;;;1.63;100.00;97126.09;4962681;28;20441;-51
2022/03/03 09:30:33;;;;;;;16.33;13.40;;;;;;;1.77;100.00;97126.75;4949370;28;20217;-46
2022/03/03 09:33:02;;;;;;;17.10;14.00;;;;;;;1.82;100.00;97124.56;4963400;28;20626;-47
2022/03/03 09:35:30;;;;;;;21.47;14.43;;;;;;;1.98;100.00;97134.53;4924341;28;21272;-50
2022/03/03 09:37:59;;;;;;;17.97;14.83;;;;;;;2.03;100.00;97138.41;4962410;28;20403;-53
2022/03/03 09:40:27;;;;;;;15.37;13.73;;;;;;;1.93;100.00;97127.09;4949915;28;20296;-48
2022/03/03 09:42:59;;;;;;;17.80;14.23;;;;;;;2.06;100.00;97126.88;4947543;28;20209;-53
2022/03/03 09:45:27;;;;;;;19.50;14.87;;;;;;;2.23;100.00;97121.97;4950259;28;20312;-51
2022/03/03 09:47:56;;;;;;;16.80;14.77;;;;;;;2.11;100.00;97110.81;4961709;28;20537;-53
2022/03/03 09:50:25;;;;;;;19.43;15.50;;;;;;;2.31;100.00;97112.50;4922255;28;20706;-49
2022/03/03 09:52:54;;;;;;;15.83;13.23;;;;;;;2.46;100.00;97096.41;4961136;28;20694;-52
2022/03/03 09:55:23;;;;;;;15.87;14.27;;;;;;;2.28;100.00;97106.72;4948882;28;20256;-50
2022/03/03 09:57:51;;;;;;;15.87;14.10;;;;;;;2.27;100.00;97103.28;4936520;28;20461;-46
2022/03/03 10:00:21;;;;;;;16.93;14.20;;;;;;;2.29;100.00;97105.75;4962477;28;20576;-52
2022/03/03 10:02:57;;;;;;;18.87;14.50;;;;;;;2.53;100.00;97099.34;4947169;28;20210;-45
2022/03/03 10:05:36;;;;;;;16.30;14.13;;;;;;;2.77;100.00;97108.59;4923762;28;20371;-54
2022/03/03 10:08:07;;;;;;;16.63;13.50;;;;;;;2.34;100.00;97094.88;4960858;28;20233;-53
2022/03/03 10:10:37;;;;;;;17.57;14.37;;;;;;;2.54;100.00;97091.38;4941562;28;20265;-49
2022/03/03 10:13:06;;;;;;;15.00;13.50;;;;;;;2.66;87.88;97093.84;4948048;28;20214;-49
2022/03/03 10:15:36;;;;;;;18.67;12.60;;;;;;;2.77;90.21;97096.31;4960497;28;20258;-52
2022/03/03 10:18:07;;;;;;;13.50;12.13;;;;;;;3.01;81.59;97100.34;4955865;28;20252;-49
2022/03/03 10:20:47;;;;;;;14.70;12.57;;;;;;;2.89;89.75;97091.78;4949301;28;20222;-51
2022/03/03 10:23:15;;;;;;;16.63;13.80;;;;;;;2.87;94.00;97088.47;4963266;28;20265;-51
2022/03/03 10:25:45;;;;;;;14.33;12.43;;;;;;;3.23;81.13;97088.75;4949383;28;20234;-49
2022/03/03 10:28:16;;;;;;;17.63;13.60;;;;;;;3.35;93.77;97083.34;4950798;28;20240;-54
2022/03/03 10:30:51;;;;;;;15.33;13.13;;;;;;;3.37;82.68;97084.88;4965783;28;20264;-50
2022/03/03 10:33:25;;;;;;;15.93;12.90;;;;;;;3.42;82.42;97084.44;4953003;28;20267;-50
2022/03/03 10:36:04;;;;;;;15.47;13.90;;;;;;;3.18;88.33;97080.47;4919807;28;20450;-46
2022/03/03 10:38:35;;;;;;;16.90;12.90;;;;;;;3.20;94.84;97075.94;4965107;28;20570;-50
2022/03/03 10:41:03;;;;;;;15.57;13.00;;;;;;;3.44;80.42;97085.13;4950153;28;20808;-45
2022/03/03 10:43:47;;;;;;;15.37;12.40;;;;;;;3.58;70.19;97086.47;4947742;28;20210;-49
2022/03/03 10:46:17;;;;;;;18.50;13.97;;;;;;;3.76;71.98;97082.13;4970512;28;20861;-52
2022/03/03 10:48:45;;;;;;;18.70;13.70;;;;;;;3.58;69.98;97070.72;4946118;28;20360;-51
2022/03/03 10:51:16;;;;;;;15.50;13.37;;;;;;;3.76;74.50;97090.00;4967025;28;20626;-49
2022/03/03 10:53:44;;;;;;;15.33;12.47;;;;;;;4.01;68.94;97087.72;4920641;28;21721;-48
2022/03/03 10:56:15;;;;;;;14.40;12.23;;;;;;;4.19;58.16;97081.69;4952494;28;20335;-48
2022/03/03 10:58:49;;;;;;;13.90;11.80;;;;;;;4.36;56.06;97080.06;4948940;28;20859;-48
2022/03/03 11:01:23;;;;;;;17.30;13.13;;;;;;;4.10;54.04;97078.13;4965378;28;20622;-50
2022/03/03 11:03:53;;;;;;;16.47;13.43;;;;;;;3.77;56.74;97082.94;4948396;28;20306;-51
2022/03/03 11:06:24;;;;;;;15.27;12.73;;;;;;;4.13;54.59;97082.25;4966364;28;20230;-44
2022/03/03 11:08:53;;;;;;;16.63;13.10;;;;;;;3.94;56.04;97077.94;4917413;28;20221;-48
2022/03/03 11:11:22;;;;;;;16.47;13.63;;;;;;;4.27;53.58;97076.53;4968457;28;20211;-50
2022/03/03 11:13:52;;;;;;;15.93;13.20;;;;;;;4.32;52.04;97069.03;4929979;28;20863;-54
2022/03/03 11:16:22;;;;;;;15.20;12.13;;;;;;;4.30;50.64;97076.22;4967061;28;20230;-49
2022/03/03 11:18:51;;;;;;;15.53;11.60;;;;;;;4.31;51.04;97067.38;4947708;28;20625;-50
2022/03/03 11:21:20;;;;;;;15.07;11.73;;;;;;;4.35;51.40;97067.94;4970083;28;20246;-48
2022/03/03 11:23:54;;;;;;;15.23;12.33;;;;;;;4.32;50.79;97065.59;4919501;28;20433;-48